sensor_id;sensor_type;location;lat;lon;timestamp;P1;durP1;ratioP1;P2;durP2;ratioP2
83026;SDS011;72842;56.038;12.706;2023-09-19T00:00:37;9.75;;;4.38;;
83026;SDS011;72842;56.038;12.706;2023-09-19T00:03:05;5.05;;;4.55;;
83026;SDS011;72842;56.038;12.706;2023-09-19T00:05:33;9.05;;;3.63;;
83026;SDS011;72842;56.038;12.706;2023-09-19T00:08:00;5.85;;;4.07;;
83026;SDS011;72842;56.038;12.706;2023-09-19T00:10:26;6.78;;;4.07;;
83026;SDS011;72842;56.038;12.706;2023-09-19T00:12:56;9.20;;;4.18;;
83026;SDS011;72842;56.038;12.706;2023-09-19T00:15:23;9.45;;;4.03;;
83026;SDS011;72842;56.038;12.706;2023-09-19T00:17:55;6.72;;;3.60;;
83026;SDS011;72842;56.038;12.706;2023-09-19T00:20:21;8.27;;;3.72;;
83026;SDS011;72842;56.038;12.706;2023-09-19T00:22:50;5.88;;;3.72;;
83026;SDS011;72842;56.038;12.706;2023-09-19T00:25:17;7.68;;;3.90;;
83026;SDS011;72842;56.038;12.706;2023-09-19T00:27:43;7.70;;;3.80;;
83026;SDS011;72842;56.038;12.706;2023-09-19T00:30:10;7.40;;;3.58;;
83026;SDS011;72842;56.038;12.706;2023-09-19T00:32:45;7.63;;;3.92;;
83026;SDS011;72842;56.038;12.706;2023-09-19T00:35:12;10.77;;;4.65;;
83026;SDS011;72842;56.038;12.706;2023-09-19T00:37:40;9.30;;;3.60;;
83026;SDS011;72842;56.038;12.706;2023-09-19T00:40:09;7.03;;;3.50;;
83026;SDS011;72842;56.038;12.706;2023-09-19T00:42:40;6.88;;;3.42;;
83026;SDS011;72842;56.038;12.706;2023-09-19T00:45:13;7.65;;;3.28;;
83026;SDS011;72842;56.038;12.706;2023-09-19T00:47:49;7.18;;;2.78;;
83026;SDS011;72842;56.038;12.706;2023-09-19T00:50:16;7.28;;;3.20;;
83026;SDS011;72842;56.038;12.706;2023-09-19T00:52:44;4.97;;;2.60;;
83026;SDS011;72842;56.038;12.706;2023-09-19T00:55:11;6.18;;;3.25;;
83026;SDS011;72842;56.038;12.706;2023-09-19T00:57:38;5.97;;;2.75;;
83026;SDS011;72842;56.038;12.706;2023-09-19T01:00:05;4.72;;;2.50;;
83026;SDS011;72842;56.038;12.706;2023-09-19T01:02:32;6.00;;;2.55;;
83026;SDS011;72842;56.038;12.706;2023-09-19T01:04:59;6.97;;;2.55;;
83026;SDS011;72842;56.038;12.706;2023-09-19T01:07:25;6.03;;;2.95;;
83026;SDS011;72842;56.038;12.706;2023-09-19T01:09:51;6.15;;;3.22;;
83026;SDS011;72842;56.038;12.706;2023-09-19T01:12:26;6.18;;;2.45;;
83026;SDS011;72842;56.038;12.706;2023-09-19T01:15:59;4.45;;;2.50;;
83026;SDS011;72842;56.038;12.706;2023-09-19T01:26:11;5.22;;;2.28;;
83026;SDS011;72842;56.038;12.706;2023-09-19T01:31:38;5.70;;;2.35;;
83026;SDS011;72842;56.038;12.706;2023-09-19T01:34:05;3.72;;;1.92;;
83026;SDS011;72842;56.038;12.706;2023-09-19T01:36:34;6.00;;;2.67;;
83026;SDS011;72842;56.038;12.706;2023-09-19T01:44:39;5.85;;;2.03;;
83026;SDS011;72842;56.038;12.706;2023-09-19T01:47:23;4.03;;;1.88;;
83026;SDS011;72842;56.038;12.706;2023-09-19T01:50:41;4.70;;;1.60;;
83026;SDS011;72842;56.038;12.706;2023-09-19T01:53:06;4.45;;;1.67;;
83026;SDS011;72842;56.038;12.706;2023-09-19T01:55:43;6.45;;;1.95;;
83026;SDS011;72842;56.038;12.706;2023-09-19T01:58:18;3.88;;;1.83;;
83026;SDS011;72842;56.038;12.706;2023-09-19T02:00:52;4.75;;;1.60;;
83026;SDS011;72842;56.038;12.706;2023-09-19T02:03:20;4.75;;;1.88;;
83026;SDS011;72842;56.038;12.706;2023-09-19T02:05:49;3.78;;;1.52;;
83026;SDS011;72842;56.038;12.706;2023-09-19T02:08:19;4.82;;;1.60;;
83026;SDS011;72842;56.038;12.706;2023-09-19T02:10:45;4.40;;;1.77;;
83026;SDS011;72842;56.038;12.706;2023-09-19T02:13:17;3.83;;;1.33;;
83026;SDS011;72842;56.038;12.706;2023-09-19T02:15:47;3.17;;;1.70;;
83026;SDS011;72842;56.038;12.706;2023-09-19T02:18:13;3.33;;;1.48;;
83026;SDS011;72842;56.038;12.706;2023-09-19T02:20:39;3.10;;;1.02;;
83026;SDS011;72842;56.038;12.706;2023-09-19T02:23:05;3.28;;;1.40;;
83026;SDS011;72842;56.038;12.706;2023-09-19T02:25:33;3.25;;;1.30;;
83026;SDS011;72842;56.038;12.706;2023-09-19T02:27:58;3.80;;;2.00;;
83026;SDS011;72842;56.038;12.706;2023-09-19T02:30:24;5.18;;;1.15;;
83026;SDS011;72842;56.038;12.706;2023-09-19T02:32:53;3.22;;;1.27;;
83026;SDS011;72842;56.038;12.706;2023-09-19T02:35:18;2.80;;;1.10;;
83026;SDS011;72842;56.038;12.706;2023-09-19T02:37:47;4.38;;;0.95;;
83026;SDS011;72842;56.038;12.706;2023-09-19T02:40:13;3.80;;;1.40;;
83026;SDS011;72842;56.038;12.706;2023-09-19T02:42:48;3.25;;;1.02;;
83026;SDS011;72842;56.038;12.706;2023-09-19T02:45:17;3.40;;;0.98;;
83026;SDS011;72842;56.038;12.706;2023-09-19T02:47:44;1.80;;;0.93;;
83026;SDS011;72842;56.038;12.706;2023-09-19T02:50:10;3.03;;;1.08;;
83026;SDS011;72842;56.038;12.706;2023-09-19T02:52:36;3.50;;;1.10;;
83026;SDS011;72842;56.038;12.706;2023-09-19T02:55:02;3.38;;;1.30;;
83026;SDS011;72842;56.038;12.706;2023-09-19T02:57:30;3.17;;;0.82;;
83026;SDS011;72842;56.038;12.706;2023-09-19T02:59:58;4.32;;;1.13;;
83026;SDS011;72842;56.038;12.706;2023-09-19T03:02:25;2.55;;;1.10;;
83026;SDS011;72842;56.038;12.706;2023-09-19T03:04:52;5.70;;;1.60;;
83026;SDS011;72842;56.038;12.706;2023-09-19T03:07:18;2.90;;;1.30;;
83026;SDS011;72842;56.038;12.706;2023-09-19T03:09:44;4.28;;;1.60;;
83026;SDS011;72842;56.038;12.706;2023-09-19T03:12:10;2.90;;;1.25;;
83026;SDS011;72842;56.038;12.706;2023-09-19T03:14:36;3.00;;;1.35;;
83026;SDS011;72842;56.038;12.706;2023-09-19T03:17:01;5.03;;;1.10;;
83026;SDS011;72842;56.038;12.706;2023-09-19T03:19:30;3.97;;;1.30;;
83026;SDS011;72842;56.038;12.706;2023-09-19T03:21:58;3.10;;;1.60;;
83026;SDS011;72842;56.038;12.706;2023-09-19T03:24:24;4.97;;;1.50;;
83026;SDS011;72842;56.038;12.706;2023-09-19T03:26:49;3.13;;;1.10;;
83026;SDS011;72842;56.038;12.706;2023-09-19T03:29:15;3.22;;;1.30;;
83026;SDS011;72842;56.038;12.706;2023-09-19T03:31:42;4.80;;;1.17;;
83026;SDS011;72842;56.038;12.706;2023-09-19T03:34:07;3.28;;;1.42;;
83026;SDS011;72842;56.038;12.706;2023-09-19T03:36:34;2.95;;;1.20;;
83026;SDS011;72842;56.038;12.706;2023-09-19T03:39:00;5.05;;;1.35;;
83026;SDS011;72842;56.038;12.706;2023-09-19T03:41:26;3.45;;;1.00;;
83026;SDS011;72842;56.038;12.706;2023-09-19T03:43:51;2.55;;;1.10;;
83026;SDS011;72842;56.038;12.706;2023-09-19T03:46:17;3.08;;;0.98;;
83026;SDS011;72842;56.038;12.706;2023-09-19T03:48:42;6.15;;;1.30;;
83026;SDS011;72842;56.038;12.706;2023-09-19T03:51:08;4.93;;;1.42;;
83026;SDS011;72842;56.038;12.706;2023-09-19T03:53:34;3.67;;;1.10;;
83026;SDS011;72842;56.038;12.706;2023-09-19T03:55:59;4.03;;;1.50;;
83026;SDS011;72842;56.038;12.706;2023-09-19T03:58:25;3.78;;;1.00;;
83026;SDS011;72842;56.038;12.706;2023-09-19T04:00:54;3.75;;;1.10;;
83026;SDS011;72842;56.038;12.706;2023-09-19T04:03:20;2.00;;;1.02;;
83026;SDS011;72842;56.038;12.706;2023-09-19T04:05:48;3.05;;;1.10;;
83026;SDS011;72842;56.038;12.706;2023-09-19T04:08:14;4.97;;;1.52;;
83026;SDS011;72842;56.038;12.706;2023-09-19T04:10:43;2.45;;;0.93;;
83026;SDS011;72842;56.038;12.706;2023-09-19T04:13:09;6.20;;;1.30;;
83026;SDS011;72842;56.038;12.706;2023-09-19T04:15:34;3.58;;;1.05;;
83026;SDS011;72842;56.038;12.706;2023-09-19T04:17:59;2.60;;;1.00;;
83026;SDS011;72842;56.038;12.706;2023-09-19T04:20:25;3.75;;;1.00;;
83026;SDS011;72842;56.038;12.706;2023-09-19T04:22:50;5.25;;;1.17;;
83026;SDS011;72842;56.038;12.706;2023-09-19T04:25:16;3.03;;;1.00;;
83026;SDS011;72842;56.038;12.706;2023-09-19T04:27:43;3.70;;;1.05;;
83026;SDS011;72842;56.038;12.706;2023-09-19T04:30:09;2.38;;;1.10;;
83026;SDS011;72842;56.038;12.706;2023-09-19T04:32:36;3.22;;;1.00;;
83026;SDS011;72842;56.038;12.706;2023-09-19T04:35:04;6.70;;;1.50;;
83026;SDS011;72842;56.038;12.706;2023-09-19T04:37:33;4.43;;;1.00;;
83026;SDS011;72842;56.038;12.706;2023-09-19T04:40:00;4.10;;;1.20;;
83026;SDS011;72842;56.038;12.706;2023-09-19T04:42:26;4.55;;;1.30;;
83026;SDS011;72842;56.038;12.706;2023-09-19T04:44:52;2.65;;;1.27;;
83026;SDS011;72842;56.038;12.706;2023-09-19T04:47:18;4.20;;;1.20;;
83026;SDS011;72842;56.038;12.706;2023-09-19T04:49:43;5.22;;;1.10;;
83026;SDS011;72842;56.038;12.706;2023-09-19T04:52:09;3.90;;;0.95;;
83026;SDS011;72842;56.038;12.706;2023-09-19T04:54:34;4.10;;;1.10;;
83026;SDS011;72842;56.038;12.706;2023-09-19T04:57:00;3.63;;;1.88;;
83026;SDS011;72842;56.038;12.706;2023-09-19T04:59:26;4.82;;;1.35;;
83026;SDS011;72842;56.038;12.706;2023-09-19T05:01:51;5.63;;;1.10;;
83026;SDS011;72842;56.038;12.706;2023-09-19T05:04:16;4.13;;;1.23;;
83026;SDS011;72842;56.038;12.706;2023-09-19T05:06:42;4.93;;;1.10;;
83026;SDS011;72842;56.038;12.706;2023-09-19T05:09:07;5.10;;;1.17;;
83026;SDS011;72842;56.038;12.706;2023-09-19T05:11:33;3.35;;;1.48;;
83026;SDS011;72842;56.038;12.706;2023-09-19T05:13:59;5.97;;;1.50;;
83026;SDS011;72842;56.038;12.706;2023-09-19T05:16:28;4.50;;;1.38;;
83026;SDS011;72842;56.038;12.706;2023-09-19T05:18:56;6.30;;;1.30;;
83026;SDS011;72842;56.038;12.706;2023-09-19T05:21:23;6.40;;;1.38;;
83026;SDS011;72842;56.038;12.706;2023-09-19T05:23:51;4.85;;;1.27;;
83026;SDS011;72842;56.038;12.706;2023-09-19T05:26:17;5.70;;;1.17;;
83026;SDS011;72842;56.038;12.706;2023-09-19T05:28:43;6.00;;;1.17;;
83026;SDS011;72842;56.038;12.706;2023-09-19T05:31:08;4.80;;;1.20;;
83026;SDS011;72842;56.038;12.706;2023-09-19T05:33:34;5.50;;;1.67;;
83026;SDS011;72842;56.038;12.706;2023-09-19T05:35:59;4.50;;;1.35;;
83026;SDS011;72842;56.038;12.706;2023-09-19T05:38:25;7.22;;;1.52;;
83026;SDS011;72842;56.038;12.706;2023-09-19T05:40:52;4.05;;;1.30;;
83026;SDS011;72842;56.038;12.706;2023-09-19T05:43:18;5.40;;;1.48;;
83026;SDS011;72842;56.038;12.706;2023-09-19T05:45:44;5.85;;;1.40;;
83026;SDS011;72842;56.038;12.706;2023-09-19T05:48:14;5.00;;;1.50;;
83026;SDS011;72842;56.038;12.706;2023-09-19T05:50:41;3.42;;;1.20;;
83026;SDS011;72842;56.038;12.706;2023-09-19T05:53:07;5.18;;;1.85;;
83026;SDS011;72842;56.038;12.706;2023-09-19T05:55:33;4.70;;;1.73;;
83026;SDS011;72842;56.038;12.706;2023-09-19T05:57:59;5.28;;;1.25;;
83026;SDS011;72842;56.038;12.706;2023-09-19T06:00:25;4.40;;;1.60;;
83026;SDS011;72842;56.038;12.706;2023-09-19T06:02:56;4.65;;;1.20;;
83026;SDS011;72842;56.038;12.706;2023-09-19T06:05:22;6.18;;;1.10;;
83026;SDS011;72842;56.038;12.706;2023-09-19T06:07:48;4.57;;;1.40;;
83026;SDS011;72842;56.038;12.706;2023-09-19T06:10:15;5.22;;;1.63;;
83026;SDS011;72842;56.038;12.706;2023-09-19T06:12:42;7.72;;;1.63;;
83026;SDS011;72842;56.038;12.706;2023-09-19T06:15:11;4.03;;;1.98;;
83026;SDS011;72842;56.038;12.706;2023-09-19T06:17:46;3.05;;;1.63;;
83026;SDS011;72842;56.038;12.706;2023-09-19T06:20:13;6.43;;;1.77;;
83026;SDS011;72842;56.038;12.706;2023-09-19T06:22:42;4.55;;;1.60;;
83026;SDS011;72842;56.038;12.706;2023-09-19T06:25:12;7.05;;;1.45;;
83026;SDS011;72842;56.038;12.706;2023-09-19T06:27:44;4.55;;;1.90;;
83026;SDS011;72842;56.038;12.706;2023-09-19T06:30:10;4.80;;;1.63;;
83026;SDS011;72842;56.038;12.706;2023-09-19T06:32:42;5.53;;;1.58;;
83026;SDS011;72842;56.038;12.706;2023-09-19T06:35:09;5.63;;;1.65;;
83026;SDS011;72842;56.038;12.706;2023-09-19T06:37:38;6.95;;;1.75;;
83026;SDS011;72842;56.038;12.706;2023-09-19T06:40:06;4.43;;;1.27;;
83026;SDS011;72842;56.038;12.706;2023-09-19T06:42:50;5.60;;;1.67;;
83026;SDS011;72842;56.038;12.706;2023-09-19T06:45:16;6.85;;;1.10;;
83026;SDS011;72842;56.038;12.706;2023-09-19T06:47:48;7.82;;;1.50;;
83026;SDS011;72842;56.038;12.706;2023-09-19T06:52:44;4.35;;;1.60;;
83026;SDS011;72842;56.038;12.706;2023-09-19T06:55:10;5.47;;;1.02;;
83026;SDS011;72842;56.038;12.706;2023-09-19T06:57:38;7.00;;;1.58;;
83026;SDS011;72842;56.038;12.706;2023-09-19T07:00:05;7.18;;;1.80;;
83026;SDS011;72842;56.038;12.706;2023-09-19T07:02:40;5.20;;;1.50;;
83026;SDS011;72842;56.038;12.706;2023-09-19T07:05:09;7.10;;;1.67;;
83026;SDS011;72842;56.038;12.706;2023-09-19T07:07:35;7.20;;;1.80;;
83026;SDS011;72842;56.038;12.706;2023-09-19T07:10:01;5.63;;;1.83;;
83026;SDS011;72842;56.038;12.706;2023-09-19T07:12:28;4.90;;;1.40;;
83026;SDS011;72842;56.038;12.706;2023-09-19T07:14:54;5.47;;;1.52;;
83026;SDS011;72842;56.038;12.706;2023-09-19T07:17:19;8.15;;;1.80;;
83026;SDS011;72842;56.038;12.706;2023-09-19T07:19:46;3.85;;;1.23;;
83026;SDS011;72842;56.038;12.706;2023-09-19T07:22:13;8.27;;;1.65;;
83026;SDS011;72842;56.038;12.706;2023-09-19T07:24:38;4.63;;;1.38;;
83026;SDS011;72842;56.038;12.706;2023-09-19T07:27:04;5.47;;;1.33;;
83026;SDS011;72842;56.038;12.706;2023-09-19T07:29:30;6.80;;;2.50;;
83026;SDS011;72842;56.038;12.706;2023-09-19T07:31:55;7.95;;;1.77;;
83026;SDS011;72842;56.038;12.706;2023-09-19T07:34:21;8.00;;;1.40;;
83026;SDS011;72842;56.038;12.706;2023-09-19T07:36:48;7.93;;;1.63;;
83026;SDS011;72842;56.038;12.706;2023-09-19T07:39:13;9.63;;;2.00;;
83026;SDS011;72842;56.038;12.706;2023-09-19T07:41:39;6.95;;;1.67;;
83026;SDS011;72842;56.038;12.706;2023-09-19T07:44:04;8.02;;;1.95;;
83026;SDS011;72842;56.038;12.706;2023-09-19T07:46:30;4.65;;;1.30;;
83026;SDS011;72842;56.038;12.706;2023-09-19T07:48:56;9.23;;;1.88;;
83026;SDS011;72842;56.038;12.706;2023-09-19T07:51:22;8.85;;;1.80;;
83026;SDS011;72842;56.038;12.706;2023-09-19T07:53:48;5.68;;;1.55;;
83026;SDS011;72842;56.038;12.706;2023-09-19T07:56:13;5.80;;;1.55;;
83026;SDS011;72842;56.038;12.706;2023-09-19T07:58:39;7.68;;;1.70;;
83026;SDS011;72842;56.038;12.706;2023-09-19T08:01:09;7.82;;;1.83;;
83026;SDS011;72842;56.038;12.706;2023-09-19T08:03:36;9.48;;;1.90;;
83026;SDS011;72842;56.038;12.706;2023-09-19T08:06:09;5.05;;;1.98;;
83026;SDS011;72842;56.038;12.706;2023-09-19T08:08:35;7.70;;;2.38;;
83026;SDS011;72842;56.038;12.706;2023-09-19T08:11:02;7.90;;;2.58;;
83026;SDS011;72842;56.038;12.706;2023-09-19T08:13:36;6.43;;;1.60;;
83026;SDS011;72842;56.038;12.706;2023-09-19T08:16:03;8.07;;;2.47;;
83026;SDS011;72842;56.038;12.706;2023-09-19T08:18:30;7.78;;;1.70;;
83026;SDS011;72842;56.038;12.706;2023-09-19T08:20:55;13.23;;;2.50;;
83026;SDS011;72842;56.038;12.706;2023-09-19T08:23:23;8.13;;;2.33;;
83026;SDS011;72842;56.038;12.706;2023-09-19T08:25:49;9.82;;;1.88;;
83026;SDS011;72842;56.038;12.706;2023-09-19T08:28:15;9.23;;;2.65;;
83026;SDS011;72842;56.038;12.706;2023-09-19T08:30:43;4.43;;;1.35;;
83026;SDS011;72842;56.038;12.706;2023-09-19T08:33:10;6.53;;;1.77;;
83026;SDS011;72842;56.038;12.706;2023-09-19T08:35:36;6.97;;;2.00;;
83026;SDS011;72842;56.038;12.706;2023-09-19T08:38:04;6.13;;;1.73;;
83026;SDS011;72842;56.038;12.706;2023-09-19T08:40:31;10.68;;;2.15;;
83026;SDS011;72842;56.038;12.706;2023-09-19T08:42:58;8.40;;;1.75;;
83026;SDS011;72842;56.038;12.706;2023-09-19T08:45:26;6.78;;;1.08;;
83026;SDS011;72842;56.038;12.706;2023-09-19T08:50:56;5.82;;;0.90;;
83026;SDS011;72842;56.038;12.706;2023-09-19T08:53:26;6.15;;;1.10;;
83026;SDS011;72842;56.038;12.706;2023-09-19T08:55:55;5.95;;;1.23;;
83026;SDS011;72842;56.038;12.706;2023-09-19T08:58:23;4.70;;;0.70;;
83026;SDS011;72842;56.038;12.706;2023-09-19T09:00:54;4.85;;;1.00;;
83026;SDS011;72842;56.038;12.706;2023-09-19T09:03:23;3.35;;;0.85;;
83026;SDS011;72842;56.038;12.706;2023-09-19T09:05:51;3.60;;;1.08;;
83026;SDS011;72842;56.038;12.706;2023-09-19T09:08:17;6.13;;;1.10;;
83026;SDS011;72842;56.038;12.706;2023-09-19T09:10:46;3.50;;;0.90;;
83026;SDS011;72842;56.038;12.706;2023-09-19T09:13:12;5.15;;;0.90;;
83026;SDS011;72842;56.038;12.706;2023-09-19T09:15:39;3.08;;;0.95;;
83026;SDS011;72842;56.038;12.706;2023-09-19T09:18:06;4.32;;;2.20;;
83026;SDS011;72842;56.038;12.706;2023-09-19T09:20:32;4.47;;;1.05;;
83026;SDS011;72842;56.038;12.706;2023-09-19T09:22:57;5.05;;;1.27;;
83026;SDS011;72842;56.038;12.706;2023-09-19T09:25:47;6.80;;;1.55;;
83026;SDS011;72842;56.038;12.706;2023-09-19T09:28:19;5.32;;;1.00;;
83026;SDS011;72842;56.038;12.706;2023-09-19T09:30:45;4.43;;;1.10;;
83026;SDS011;72842;56.038;12.706;2023-09-19T09:33:11;5.25;;;1.35;;
83026;SDS011;72842;56.038;12.706;2023-09-19T09:35:52;4.47;;;1.33;;
83026;SDS011;72842;56.038;12.706;2023-09-19T09:38:25;4.68;;;1.60;;
83026;SDS011;72842;56.038;12.706;2023-09-19T09:40:52;4.90;;;1.38;;
83026;SDS011;72842;56.038;12.706;2023-09-19T09:43:35;2.92;;;1.13;;
83026;SDS011;72842;56.038;12.706;2023-09-19T09:48:47;6.28;;;1.60;;
83026;SDS011;72842;56.038;12.706;2023-09-19T09:51:41;5.93;;;1.58;;
83026;SDS011;72842;56.038;12.706;2023-09-19T09:54:11;5.93;;;1.95;;
83026;SDS011;72842;56.038;12.706;2023-09-19T09:56:56;5.97;;;1.63;;
83026;SDS011;72842;56.038;12.706;2023-09-19T10:02:29;7.95;;;1.70;;
83026;SDS011;72842;56.038;12.706;2023-09-19T10:05:11;5.75;;;2.90;;
83026;SDS011;72842;56.038;12.706;2023-09-19T10:07:48;5.38;;;1.98;;
83026;SDS011;72842;56.038;12.706;2023-09-19T10:13:09;8.15;;;1.95;;
83026;SDS011;72842;56.038;12.706;2023-09-19T10:15:48;5.82;;;1.75;;
83026;SDS011;72842;56.038;12.706;2023-09-19T10:18:18;7.32;;;2.33;;
83026;SDS011;72842;56.038;12.706;2023-09-19T10:20:46;3.20;;;1.30;;
83026;SDS011;72842;56.038;12.706;2023-09-19T10:23:13;3.65;;;1.40;;
83026;SDS011;72842;56.038;12.706;2023-09-19T10:25:43;4.18;;;1.45;;
83026;SDS011;72842;56.038;12.706;2023-09-19T10:28:12;5.72;;;2.00;;
83026;SDS011;72842;56.038;12.706;2023-09-19T10:30:42;6.80;;;2.50;;
83026;SDS011;72842;56.038;12.706;2023-09-19T10:33:10;8.85;;;1.55;;
83026;SDS011;72842;56.038;12.706;2023-09-19T10:35:44;13.68;;;3.85;;
83026;SDS011;72842;56.038;12.706;2023-09-19T10:38:11;10.52;;;2.40;;
83026;SDS011;72842;56.038;12.706;2023-09-19T10:40:38;5.38;;;1.40;;
83026;SDS011;72842;56.038;12.706;2023-09-19T10:43:20;4.03;;;1.42;;
83026;SDS011;72842;56.038;12.706;2023-09-19T10:45:47;7.53;;;1.52;;
83026;SDS011;72842;56.038;12.706;2023-09-19T10:48:15;6.13;;;1.10;;
83026;SDS011;72842;56.038;12.706;2023-09-19T10:50:46;4.63;;;1.08;;
83026;SDS011;72842;56.038;12.706;2023-09-19T10:53:16;3.95;;;1.08;;
83026;SDS011;72842;56.038;12.706;2023-09-19T10:55:47;3.65;;;1.17;;
83026;SDS011;72842;56.038;12.706;2023-09-19T10:58:24;4.75;;;1.13;;
83026;SDS011;72842;56.038;12.706;2023-09-19T11:00:55;3.95;;;1.27;;
83026;SDS011;72842;56.038;12.706;2023-09-19T11:03:35;4.43;;;1.52;;
83026;SDS011;72842;56.038;12.706;2023-09-19T11:06:15;6.72;;;2.58;;
83026;SDS011;72842;56.038;12.706;2023-09-19T11:08:55;3.30;;;1.40;;
83026;SDS011;72842;56.038;12.706;2023-09-19T11:11:44;3.63;;;1.35;;
83026;SDS011;72842;56.038;12.706;2023-09-19T11:23:23;3.53;;;0.63;;
83026;SDS011;72842;56.038;12.706;2023-09-19T11:25:43;3.53;;;1.20;;
83026;SDS011;72842;56.038;12.706;2023-09-19T11:30:53;5.28;;;1.10;;
83026;SDS011;72842;56.038;12.706;2023-09-19T11:33:23;6.63;;;1.40;;
83026;SDS011;72842;56.038;12.706;2023-09-19T11:43:47;4.22;;;1.48;;
83026;SDS011;72842;56.038;12.706;2023-09-19T11:46:13;2.63;;;0.80;;
83026;SDS011;72842;56.038;12.706;2023-09-19T11:48:43;4.20;;;1.00;;
83026;SDS011;72842;56.038;12.706;2023-09-19T11:51:13;3.47;;;0.90;;
83026;SDS011;72842;56.038;12.706;2023-09-19T11:53:45;7.93;;;1.80;;
83026;SDS011;72842;56.038;12.706;2023-09-19T11:56:14;3.17;;;0.75;;
83026;SDS011;72842;56.038;12.706;2023-09-19T11:58:42;6.03;;;0.90;;
83026;SDS011;72842;56.038;12.706;2023-09-19T12:01:09;4.78;;;1.02;;
83026;SDS011;72842;56.038;12.706;2023-09-19T12:03:45;5.38;;;1.40;;
83026;SDS011;72842;56.038;12.706;2023-09-19T12:06:13;5.10;;;1.50;;
83026;SDS011;72842;56.038;12.706;2023-09-19T12:08:40;9.95;;;3.35;;
83026;SDS011;72842;56.038;12.706;2023-09-19T12:11:11;7.90;;;3.20;;
83026;SDS011;72842;56.038;12.706;2023-09-19T12:13:44;9.68;;;2.00;;
83026;SDS011;72842;56.038;12.706;2023-09-19T12:16:12;5.07;;;2.42;;
83026;SDS011;72842;56.038;12.706;2023-09-19T12:18:40;6.65;;;1.42;;
83026;SDS011;72842;56.038;12.706;2023-09-19T12:21:25;5.35;;;1.23;;
83026;SDS011;72842;56.038;12.706;2023-09-19T12:26:29;6.75;;;1.70;;
83026;SDS011;72842;56.038;12.706;2023-09-19T12:28:59;7.35;;;2.25;;
83026;SDS011;72842;56.038;12.706;2023-09-19T12:31:26;6.82;;;1.23;;
83026;SDS011;72842;56.038;12.706;2023-09-19T12:33:53;5.22;;;0.88;;
83026;SDS011;72842;56.038;12.706;2023-09-19T12:36:20;4.28;;;1.10;;
83026;SDS011;72842;56.038;12.706;2023-09-19T12:38:56;5.47;;;1.23;;
83026;SDS011;72842;56.038;12.706;2023-09-19T12:41:28;8.43;;;1.13;;
83026;SDS011;72842;56.038;12.706;2023-09-19T12:43:54;4.15;;;1.20;;
83026;SDS011;72842;56.038;12.706;2023-09-19T12:46:20;4.13;;;0.93;;
83026;SDS011;72842;56.038;12.706;2023-09-19T12:49:14;5.70;;;1.13;;
83026;SDS011;72842;56.038;12.706;2023-09-19T12:51:47;3.58;;;0.90;;
83026;SDS011;72842;56.038;12.706;2023-09-19T12:54:14;3.22;;;1.30;;
83026;SDS011;72842;56.038;12.706;2023-09-19T12:56:42;4.65;;;1.00;;
83026;SDS011;72842;56.038;12.706;2023-09-19T12:59:11;6.13;;;2.30;;
83026;SDS011;72842;56.038;12.706;2023-09-19T13:01:38;4.55;;;1.38;;
83026;SDS011;72842;56.038;12.706;2023-09-19T13:04:19;6.07;;;1.55;;
83026;SDS011;72842;56.038;12.706;2023-09-19T13:06:51;8.00;;;1.52;;
83026;SDS011;72842;56.038;12.706;2023-09-19T13:09:19;5.97;;;1.15;;
83026;SDS011;72842;56.038;12.706;2023-09-19T13:11:46;6.60;;;1.80;;
83026;SDS011;72842;56.038;12.706;2023-09-19T13:16:59;6.07;;;1.63;;
83026;SDS011;72842;56.038;12.706;2023-09-19T13:19:38;4.85;;;1.35;;
83026;SDS011;72842;56.038;12.706;2023-09-19T13:25:08;9.50;;;2.50;;
83026;SDS011;72842;56.038;12.706;2023-09-19T13:27:40;6.55;;;2.63;;
83026;SDS011;72842;56.038;12.706;2023-09-19T13:30:09;10.27;;;2.03;;
83026;SDS011;72842;56.038;12.706;2023-09-19T13:32:36;4.60;;;1.67;;
83026;SDS011;72842;56.038;12.706;2023-09-19T13:35:02;5.30;;;1.13;;
83026;SDS011;72842;56.038;12.706;2023-09-19T13:37:30;5.10;;;1.30;;
83026;SDS011;72842;56.038;12.706;2023-09-19T13:39:56;6.35;;;1.33;;
83026;SDS011;72842;56.038;12.706;2023-09-19T13:42:23;7.85;;;1.88;;
83026;SDS011;72842;56.038;12.706;2023-09-19T13:44:50;8.38;;;1.42;;
83026;SDS011;72842;56.038;12.706;2023-09-19T13:47:16;4.63;;;1.50;;
83026;SDS011;72842;56.038;12.706;2023-09-19T13:49:49;5.80;;;2.50;;
83026;SDS011;72842;56.038;12.706;2023-09-19T13:52:18;5.47;;;1.63;;
83026;SDS011;72842;56.038;12.706;2023-09-19T13:54:44;4.40;;;1.00;;
83026;SDS011;72842;56.038;12.706;2023-09-19T13:57:09;5.35;;;0.98;;
83026;SDS011;72842;56.038;12.706;2023-09-19T13:59:35;6.90;;;2.00;;
83026;SDS011;72842;56.038;12.706;2023-09-19T14:02:00;7.55;;;1.80;;
83026;SDS011;72842;56.038;12.706;2023-09-19T14:04:28;8.50;;;1.60;;
83026;SDS011;72842;56.038;12.706;2023-09-19T14:06:54;6.30;;;1.60;;
83026;SDS011;72842;56.038;12.706;2023-09-19T14:09:19;6.13;;;1.60;;
83026;SDS011;72842;56.038;12.706;2023-09-19T14:11:46;3.97;;;1.35;;
83026;SDS011;72842;56.038;12.706;2023-09-19T14:14:13;6.88;;;1.48;;
83026;SDS011;72842;56.038;12.706;2023-09-19T14:16:38;5.32;;;1.20;;
83026;SDS011;72842;56.038;12.706;2023-09-19T14:19:06;5.65;;;1.98;;
83026;SDS011;72842;56.038;12.706;2023-09-19T14:21:33;4.85;;;1.48;;
83026;SDS011;72842;56.038;12.706;2023-09-19T14:23:58;5.50;;;1.25;;
83026;SDS011;72842;56.038;12.706;2023-09-19T14:26:24;5.47;;;1.48;;
83026;SDS011;72842;56.038;12.706;2023-09-19T14:28:49;4.68;;;1.30;;
83026;SDS011;72842;56.038;12.706;2023-09-19T14:31:15;6.47;;;1.27;;
83026;SDS011;72842;56.038;12.706;2023-09-19T14:33:40;6.07;;;1.60;;
83026;SDS011;72842;56.038;12.706;2023-09-19T14:36:07;6.70;;;2.08;;
83026;SDS011;72842;56.038;12.706;2023-09-19T14:38:35;6.30;;;1.80;;
83026;SDS011;72842;56.038;12.706;2023-09-19T14:41:02;6.60;;;1.65;;
83026;SDS011;72842;56.038;12.706;2023-09-19T14:43:28;4.80;;;1.42;;
83026;SDS011;72842;56.038;12.706;2023-09-19T14:46:04;7.80;;;2.00;;
83026;SDS011;72842;56.038;12.706;2023-09-19T14:48:35;7.47;;;2.40;;
83026;SDS011;72842;56.038;12.706;2023-09-19T14:51:04;5.75;;;1.77;;
83026;SDS011;72842;56.038;12.706;2023-09-19T14:53:30;7.05;;;1.65;;
83026;SDS011;72842;56.038;12.706;2023-09-19T14:55:59;11.55;;;2.17;;
83026;SDS011;72842;56.038;12.706;2023-09-19T14:58:28;8.40;;;2.10;;
83026;SDS011;72842;56.038;12.706;2023-09-19T15:01:02;6.55;;;1.98;;
83026;SDS011;72842;56.038;12.706;2023-09-19T15:03:31;5.97;;;1.95;;
83026;SDS011;72842;56.038;12.706;2023-09-19T15:06:01;7.85;;;2.28;;
83026;SDS011;72842;56.038;12.706;2023-09-19T15:08:31;8.48;;;2.20;;
83026;SDS011;72842;56.038;12.706;2023-09-19T15:10:59;5.07;;;1.80;;
83026;SDS011;72842;56.038;12.706;2023-09-19T15:13:28;4.53;;;1.77;;
83026;SDS011;72842;56.038;12.706;2023-09-19T15:15:58;7.85;;;2.25;;
83026;SDS011;72842;56.038;12.706;2023-09-19T15:18:42;7.68;;;1.88;;
83026;SDS011;72842;56.038;12.706;2023-09-19T15:21:10;9.50;;;2.13;;
83026;SDS011;72842;56.038;12.706;2023-09-19T15:23:37;7.00;;;2.00;;
83026;SDS011;72842;56.038;12.706;2023-09-19T15:26:04;7.57;;;2.03;;
83026;SDS011;72842;56.038;12.706;2023-09-19T15:28:38;6.93;;;2.05;;
83026;SDS011;72842;56.038;12.706;2023-09-19T15:31:08;5.35;;;1.88;;
83026;SDS011;72842;56.038;12.706;2023-09-19T15:33:38;6.72;;;1.92;;
83026;SDS011;72842;56.038;12.706;2023-09-19T15:36:10;5.93;;;1.80;;
83026;SDS011;72842;56.038;12.706;2023-09-19T15:41:37;7.85;;;1.88;;
83026;SDS011;72842;56.038;12.706;2023-09-19T15:44:04;7.22;;;1.67;;